createdAt,value
2023-04-07T00:01:10.335Z,3.89
2023-04-07T00:03:36.973Z,3.85
2023-04-07T00:06:03.445Z,3.83
2023-04-07T00:08:29.993Z,3.78
2023-04-07T00:10:56.452Z,3.94
2023-04-07T00:13:22.842Z,3.75
2023-04-07T00:15:49.309Z,4.21
2023-04-07T00:18:15.702Z,3.98
2023-04-07T00:20:42.188Z,3.56
2023-04-07T00:23:08.673Z,3.75
2023-04-07T00:25:35.192Z,3.79
2023-04-07T00:28:01.598Z,3.92
2023-04-07T00:30:28.167Z,3.54
2023-04-07T00:32:54.742Z,3.40
2023-04-07T00:35:21.265Z,3.81
2023-04-07T00:37:47.882Z,4.04
2023-04-07T00:40:14.362Z,3.57
2023-04-07T00:42:40.756Z,3.61
2023-04-07T00:45:07.138Z,3.47
2023-04-07T00:47:33.569Z,3.61
2023-04-07T00:49:59.964Z,3.56
2023-04-07T00:52:26.571Z,3.35
2023-04-07T00:54:52.982Z,3.25
2023-04-07T00:57:19.518Z,3.19
2023-04-07T00:59:46.020Z,3.40
2023-04-07T01:02:12.502Z,3.66
2023-04-07T01:04:39.297Z,3.38
2023-04-07T01:07:06.002Z,3.63
2023-04-07T01:09:32.413Z,3.49
2023-04-07T01:11:58.801Z,3.56
2023-04-07T01:14:25.433Z,3.77
2023-04-07T01:16:53.785Z,3.81
2023-04-07T01:19:21.465Z,3.93
2023-04-07T01:21:47.863Z,4.00
2023-04-07T01:24:14.359Z,3.65
2023-04-07T01:26:40.937Z,4.21
2023-04-07T01:29:07.426Z,3.95
2023-04-07T01:31:33.888Z,4.31
2023-04-07T01:34:00.278Z,4.30
2023-04-07T01:36:26.828Z,4.03
2023-04-07T01:38:53.229Z,4.41
2023-04-07T01:41:19.645Z,4.64
2023-04-07T01:43:46.465Z,4.13
2023-04-07T01:46:12.999Z,4.10
2023-04-07T01:48:39.346Z,4.23
2023-04-07T01:51:05.787Z,4.40
2023-04-07T01:53:32.185Z,4.61
2023-04-07T01:55:58.593Z,4.76
2023-04-07T01:58:24.943Z,4.51
2023-04-07T02:00:51.347Z,4.62
2023-04-07T02:03:18.050Z,4.75
2023-04-07T02:05:44.534Z,4.62
2023-04-07T02:08:11.988Z,4.77
2023-04-07T02:10:38.389Z,4.65
2023-04-07T02:13:04.876Z,4.88
2023-04-07T02:15:31.258Z,4.93
2023-04-07T02:17:57.731Z,4.83
2023-04-07T02:20:24.131Z,5.03
2023-04-07T02:22:50.532Z,4.52
2023-04-07T02:25:16.946Z,4.65
2023-04-07T02:27:43.329Z,4.87
2023-04-07T02:30:09.695Z,4.76
2023-04-07T02:32:36.099Z,4.60
2023-04-07T02:35:02.529Z,4.52
2023-04-07T02:37:28.951Z,4.50
2023-04-07T02:39:55.323Z,4.47
2023-04-07T02:42:21.686Z,4.73
2023-04-07T02:44:48.108Z,4.66
2023-04-07T02:47:14.515Z,5.01
2023-04-07T02:49:40.959Z,5.00
2023-04-07T02:52:07.380Z,5.03
2023-04-07T02:54:33.788Z,4.83
2023-04-07T02:57:00.188Z,4.85
2023-04-07T02:59:26.681Z,4.89
2023-04-07T03:01:53.193Z,5.03
2023-04-07T03:04:19.851Z,4.93
2023-04-07T03:06:46.348Z,4.69
2023-04-07T03:09:12.792Z,4.72
2023-04-07T03:11:39.204Z,4.81
2023-04-07T03:14:05.604Z,4.27
2023-04-07T03:16:32.000Z,4.48
2023-04-07T03:18:58.384Z,4.27
2023-04-07T03:21:24.780Z,4.01
2023-04-07T03:23:51.239Z,4.08
2023-04-07T03:26:17.680Z,4.03
2023-04-07T03:28:44.091Z,3.67
2023-04-07T03:31:10.484Z,4.01
2023-04-07T03:33:36.917Z,4.20
2023-04-07T03:36:03.342Z,4.30
2023-04-07T03:38:29.772Z,3.84
2023-04-07T03:40:56.178Z,3.45
2023-04-07T03:43:22.581Z,3.61
2023-04-07T03:45:48.950Z,3.51
2023-04-07T03:48:15.428Z,3.18
2023-04-07T03:50:41.822Z,3.19
2023-04-07T03:53:08.223Z,3.05
2023-04-07T03:55:34.936Z,3.28
2023-04-07T03:58:01.330Z,3.22
2023-04-07T04:00:27.741Z,3.00
2023-04-07T04:02:54.233Z,3.15
2023-04-07T04:05:20.780Z,3.23
2023-04-07T04:07:47.228Z,3.35
2023-04-07T04:10:13.579Z,3.35
2023-04-07T04:12:39.934Z,3.27
2023-04-07T04:15:06.366Z,3.12
2023-04-07T04:17:32.813Z,3.26
2023-04-07T04:19:59.233Z,3.33
2023-04-07T04:22:25.613Z,3.60
2023-04-07T04:24:52.011Z,3.62
2023-04-07T04:27:18.451Z,3.73
2023-04-07T04:29:44.972Z,3.43
2023-04-07T04:32:11.386Z,3.32
2023-04-07T04:34:37.840Z,3.26
2023-04-07T04:37:04.304Z,2.97
2023-04-07T04:39:30.737Z,2.98
2023-04-07T04:41:57.182Z,2.84
2023-04-07T04:44:23.634Z,3.10
2023-04-07T04:46:50.046Z,3.36
2023-04-07T04:49:16.464Z,3.70
2023-04-07T04:51:42.893Z,2.96
2023-04-07T04:54:09.379Z,2.99
2023-04-07T04:56:35.811Z,2.80
2023-04-07T04:59:02.199Z,2.78
2023-04-07T05:01:28.640Z,2.59
2023-04-07T05:03:55.887Z,2.76
2023-04-07T05:06:22.623Z,2.92
2023-04-07T05:08:48.901Z,2.87
2023-04-07T05:11:15.282Z,3.33
2023-04-07T05:13:41.669Z,3.01
2023-04-07T05:16:08.100Z,2.93
2023-04-07T05:18:34.543Z,2.95
2023-04-07T05:21:01.005Z,2.87
2023-04-07T05:23:27.413Z,2.85
2023-04-07T05:25:53.813Z,2.96
2023-04-07T05:28:20.184Z,3.14
2023-04-07T05:30:46.644Z,2.91
2023-04-07T05:33:13.044Z,3.09
2023-04-07T05:35:39.450Z,2.96
2023-04-07T05:38:05.879Z,2.78
2023-04-07T05:40:32.268Z,2.71
2023-04-07T05:42:58.625Z,2.79
2023-04-07T05:45:25.032Z,2.81
2023-04-07T05:47:51.455Z,2.97
2023-04-07T05:50:17.986Z,2.75
2023-04-07T05:52:44.489Z,2.84
2023-04-07T05:55:11.079Z,2.81
2023-04-07T05:57:37.724Z,3.08
2023-04-07T06:00:04.111Z,3.01
2023-04-07T06:02:30.870Z,3.41
2023-04-07T06:04:57.403Z,3.50
2023-04-07T06:07:23.980Z,3.20
2023-04-07T06:09:50.416Z,3.27
2023-04-07T06:12:16.809Z,3.48
2023-04-07T06:14:43.188Z,3.27
2023-04-07T06:17:09.655Z,3.52
2023-04-07T06:19:36.166Z,3.39
2023-04-07T06:22:02.583Z,3.42
2023-04-07T06:24:29.013Z,3.67
2023-04-07T06:26:55.421Z,3.43
2023-04-07T06:29:21.885Z,3.55
2023-04-07T06:31:48.289Z,3.56
2023-04-07T06:34:14.750Z,3.65
2023-04-07T06:36:41.208Z,3.40
2023-04-07T06:39:07.769Z,3.36
2023-04-07T06:41:34.203Z,3.54
2023-04-07T06:44:00.578Z,3.56
2023-04-07T06:46:27.032Z,3.63
2023-04-07T06:48:53.466Z,3.51
2023-04-07T06:51:20.046Z,3.41
2023-04-07T06:53:47.759Z,4.66
2023-04-07T06:56:14.276Z,3.55
2023-04-07T06:58:40.753Z,3.59
2023-04-07T07:01:07.340Z,3.49
2023-04-07T07:03:33.902Z,3.68
2023-04-07T07:06:00.514Z,3.87
2023-04-07T07:08:26.901Z,4.47
2023-04-07T07:10:56.144Z,3.70
2023-04-07T07:13:22.529Z,3.58
2023-04-07T07:15:49.051Z,3.75
2023-04-07T07:18:15.485Z,4.03
2023-04-07T07:20:43.994Z,3.82
2023-04-07T07:23:11.880Z,4.06
2023-04-07T07:25:38.311Z,4.50
2023-04-07T07:28:07.004Z,4.42
2023-04-07T07:30:33.393Z,4.31
2023-04-07T07:32:59.891Z,4.53
2023-04-07T07:35:26.581Z,4.90
2023-04-07T07:37:53.077Z,4.76
2023-04-07T07:40:19.450Z,4.65
2023-04-07T07:42:47.265Z,4.82
2023-04-07T07:45:13.672Z,5.48
2023-04-07T07:47:40.128Z,5.08
2023-04-07T07:50:28.843Z,5.23
2023-04-07T07:52:53.984Z,5.09
2023-04-07T07:55:20.407Z,5.34
2023-04-07T07:57:46.847Z,5.02
2023-04-07T08:00:13.292Z,6.37
2023-04-07T08:02:39.855Z,7.21
2023-04-07T08:05:06.440Z,10.16
2023-04-07T08:07:34.977Z,8.85
2023-04-07T08:10:01.737Z,6.34
2023-04-07T08:12:28.364Z,6.19
2023-04-07T08:14:54.779Z,6.14
2023-04-07T08:17:21.210Z,6.10
2023-04-07T08:19:47.621Z,5.47
2023-04-07T08:22:14.036Z,6.07
2023-04-07T08:24:40.692Z,5.89
2023-04-07T08:27:07.111Z,5.77
2023-04-07T08:29:33.920Z,5.74
2023-04-07T08:32:00.421Z,5.74
2023-04-07T08:34:26.892Z,5.24
2023-04-07T08:36:53.357Z,5.51
2023-04-07T08:39:19.756Z,5.32
2023-04-07T08:41:46.337Z,5.70
2023-04-07T08:44:12.759Z,5.51
2023-04-07T08:46:39.232Z,5.47
2023-04-07T08:49:05.769Z,4.86
2023-04-07T08:51:32.276Z,18.33
2023-04-07T08:53:58.779Z,10.90
2023-04-07T08:56:25.246Z,4.53
2023-04-07T08:58:51.637Z,4.17
2023-04-07T09:01:18.356Z,4.25
2023-04-07T09:03:44.930Z,4.59
2023-04-07T09:06:11.464Z,4.28
2023-04-07T09:08:37.973Z,4.49
2023-04-07T09:11:04.373Z,4.27
2023-04-07T09:13:30.998Z,4.14
2023-04-07T09:15:57.385Z,4.50
2023-04-07T09:18:23.828Z,4.60
2023-04-07T09:20:50.356Z,4.23
2023-04-07T09:23:16.883Z,8.13
2023-04-07T09:25:43.597Z,5.36
2023-04-07T09:28:09.987Z,4.29
2023-04-07T09:30:37.692Z,4.02
2023-04-07T09:33:04.203Z,4.16
2023-04-07T09:35:31.019Z,4.36
2023-04-07T09:37:57.487Z,4.32
2023-04-07T09:40:23.864Z,4.66
2023-04-07T09:42:50.273Z,5.04
2023-04-07T09:45:27.382Z,4.75
2023-04-07T09:48:00.840Z,4.84
2023-04-07T09:50:27.341Z,4.74
2023-04-07T09:52:53.907Z,4.87
2023-04-07T09:55:23.231Z,4.48
2023-04-07T09:57:49.681Z,4.55
2023-04-07T10:00:16.042Z,4.70
2023-04-07T10:02:42.694Z,4.64
2023-04-07T10:05:10.432Z,4.90
2023-04-07T10:07:36.865Z,4.40
2023-04-07T10:10:03.519Z,4.75
2023-04-07T10:12:30.033Z,4.86
2023-04-07T10:14:56.448Z,4.33
2023-04-07T10:17:22.845Z,4.35
2023-04-07T10:19:49.241Z,4.43
2023-04-07T10:22:15.783Z,4.26
2023-04-07T10:24:42.203Z,4.74
2023-04-07T10:27:08.800Z,4.62
2023-04-07T10:29:35.762Z,4.49
2023-04-07T10:32:02.175Z,4.96
2023-04-07T10:34:28.799Z,5.32
2023-04-07T10:36:55.168Z,4.94
2023-04-07T10:39:21.755Z,4.24
2023-04-07T10:41:48.254Z,7.73
2023-04-07T10:44:14.630Z,10.39
2023-04-07T10:46:41.045Z,4.28
2023-04-07T10:49:07.470Z,3.27
2023-04-07T10:51:33.977Z,3.81
2023-04-07T10:54:00.388Z,3.72
2023-04-07T10:56:26.785Z,3.90
2023-04-07T10:58:53.362Z,3.99
2023-04-07T11:01:19.937Z,4.05
2023-04-07T11:03:46.765Z,4.22
2023-04-07T11:06:13.351Z,4.16
2023-04-07T11:08:39.877Z,4.48
2023-04-07T11:11:06.266Z,3.95
2023-04-07T11:13:32.845Z,5.29
2023-04-07T11:15:59.336Z,13.61
2023-04-07T11:18:25.737Z,9.78
2023-04-07T11:20:52.122Z,4.53
2023-04-07T11:23:18.527Z,2.83
2023-04-07T11:25:45.284Z,2.93
2023-04-07T11:28:11.701Z,9.64
2023-04-07T11:30:38.127Z,8.51
2023-04-07T11:33:04.743Z,2.20
2023-04-07T11:35:31.289Z,2.12
2023-04-07T11:37:57.780Z,1.94
2023-04-07T11:40:24.158Z,2.56
2023-04-07T11:42:51.761Z,2.03
2023-04-07T11:45:18.237Z,1.51
2023-04-07T11:47:44.722Z,1.49
2023-04-07T11:50:12.184Z,1.64
2023-04-07T11:52:40.451Z,1.88
2023-04-07T11:55:06.913Z,1.82
2023-04-07T11:57:33.401Z,1.89
2023-04-07T11:59:59.805Z,1.84
2023-04-07T12:02:26.241Z,1.85
2023-04-07T12:04:52.814Z,1.53
2023-04-07T12:07:19.304Z,1.54
2023-04-07T12:09:45.900Z,1.46
2023-04-07T12:12:12.285Z,1.35
2023-04-07T12:14:38.742Z,1.50
2023-04-07T12:17:05.137Z,2.43
2023-04-07T12:19:31.553Z,2.41
2023-04-07T12:21:58.147Z,1.50
2023-04-07T12:24:24.694Z,7.10
2023-04-07T12:26:51.248Z,8.59
2023-04-07T12:29:17.807Z,1.86
2023-04-07T12:31:44.232Z,1.58
2023-04-07T12:34:10.651Z,1.51
2023-04-07T12:36:37.051Z,1.78
2023-04-07T12:39:03.467Z,1.69
2023-04-07T12:41:30.093Z,1.66
2023-04-07T12:43:56.605Z,1.92
2023-04-07T12:46:23.127Z,2.22
2023-04-07T12:48:49.903Z,2.37
2023-04-07T12:51:16.313Z,2.23
2023-04-07T12:53:42.794Z,2.41
2023-04-07T12:56:09.265Z,1.75
2023-04-07T12:58:35.815Z,1.97
2023-04-07T13:01:02.422Z,1.63
2023-04-07T13:03:29.166Z,1.60
2023-04-07T13:05:55.811Z,1.69
2023-04-07T13:08:22.365Z,2.26
2023-04-07T13:10:48.747Z,1.70
2023-04-07T13:13:15.363Z,1.70
2023-04-07T13:15:41.759Z,1.72
2023-04-07T13:18:08.186Z,1.50
2023-04-07T13:20:34.824Z,1.38
2023-04-07T13:23:07.058Z,1.35
2023-04-07T13:25:35.943Z,1.47
2023-04-07T13:28:02.392Z,1.46
2023-04-07T13:30:29.126Z,1.40
2023-04-07T13:32:55.808Z,1.20
2023-04-07T13:35:22.306Z,1.49
2023-04-07T13:37:48.739Z,1.47
2023-04-07T13:40:15.162Z,1.72
2023-04-07T13:42:41.584Z,1.57
2023-04-07T13:45:08.146Z,1.75
2023-04-07T13:47:34.661Z,2.09
2023-04-07T13:50:01.082Z,2.18
2023-04-07T13:52:27.551Z,1.96
2023-04-07T13:54:53.937Z,2.10
2023-04-07T13:57:20.345Z,2.24
2023-04-07T13:59:47.392Z,2.33
2023-04-07T14:02:13.878Z,6.68
2023-04-07T14:04:40.617Z,2.23
2023-04-07T14:07:07.270Z,1.70
2023-04-07T14:09:33.753Z,1.88
2023-04-07T14:12:00.188Z,1.66
2023-04-07T14:14:26.601Z,1.38
2023-04-07T14:16:52.947Z,1.62
2023-04-07T14:19:19.379Z,2.01
2023-04-07T14:21:45.776Z,1.74
2023-04-07T14:24:12.151Z,2.32
2023-04-07T14:26:38.632Z,2.49
2023-04-07T14:29:05.103Z,1.73
2023-04-07T14:31:31.535Z,1.84
2023-04-07T14:33:58.156Z,2.51
2023-04-07T14:36:24.548Z,1.82
2023-04-07T14:38:50.970Z,1.80
2023-04-07T14:41:17.353Z,1.92
2023-04-07T14:43:43.900Z,1.92
2023-04-07T14:46:10.480Z,1.61
2023-04-07T14:48:36.942Z,1.33
2023-04-07T14:51:09.602Z,1.90
2023-04-07T14:53:36.324Z,1.86
2023-04-07T14:56:02.805Z,1.55
2023-04-07T14:58:29.192Z,1.57
2023-04-07T15:00:55.801Z,1.83
2023-04-07T15:03:22.453Z,1.56
2023-04-07T15:05:49.166Z,9.29
2023-04-07T15:08:15.541Z,16.11
2023-04-07T15:10:41.957Z,2.24
2023-04-07T15:13:08.396Z,1.50
2023-04-07T15:15:34.967Z,1.83
2023-04-07T15:18:01.791Z,1.66
2023-04-07T15:20:28.664Z,1.77
2023-04-07T15:22:55.073Z,1.84
2023-04-07T15:25:21.492Z,1.48
2023-04-07T15:27:47.863Z,1.50
2023-04-07T15:30:14.278Z,1.59
2023-04-07T15:32:41.006Z,1.64
2023-04-07T15:35:07.465Z,1.59
2023-04-07T15:37:33.860Z,1.64
2023-04-07T15:40:00.235Z,1.73
2023-04-07T15:42:26.757Z,1.49
2023-04-07T15:44:53.286Z,1.65
2023-04-07T15:47:19.823Z,1.23
2023-04-07T15:49:46.257Z,1.29
2023-04-07T15:52:12.776Z,1.49
2023-04-07T15:54:39.150Z,1.26
2023-04-07T15:57:05.650Z,1.23
2023-04-07T15:59:32.115Z,1.28
2023-04-07T16:01:58.761Z,1.31
2023-04-07T16:04:25.323Z,1.53
2023-04-07T16:06:51.990Z,1.57
2023-04-07T16:09:18.354Z,1.63
2023-04-07T16:11:44.890Z,1.27
2023-04-07T16:14:11.411Z,1.54
2023-04-07T16:16:37.821Z,13.89
2023-04-07T16:19:04.260Z,25.41
2023-04-07T16:21:30.810Z,9.67
2023-04-07T16:23:57.302Z,24.55
2023-04-07T16:26:23.746Z,4.92
2023-04-07T16:28:50.208Z,2.30
2023-04-07T16:31:16.825Z,1.85
2023-04-07T16:33:45.697Z,1.67
2023-04-07T16:36:12.501Z,1.23
2023-04-07T16:38:39.083Z,1.29
2023-04-07T16:41:05.501Z,1.26
2023-04-07T16:43:32.145Z,1.68
2023-04-07T16:45:58.606Z,1.58
2023-04-07T16:48:25.083Z,1.80
2023-04-07T16:50:51.492Z,1.71
2023-04-07T16:53:18.896Z,1.95
2023-04-07T16:55:45.480Z,1.76
2023-04-07T16:58:12.133Z,1.97
2023-04-07T17:00:38.564Z,1.99
2023-04-07T17:03:05.059Z,1.67
2023-04-07T17:05:31.678Z,2.18
2023-04-07T17:07:58.174Z,1.75
2023-04-07T17:10:24.615Z,5.17
2023-04-07T17:12:51.181Z,6.73
2023-04-07T17:15:17.838Z,2.60
2023-04-07T17:17:44.438Z,1.78
2023-04-07T17:20:10.884Z,3.31
2023-04-07T17:22:37.400Z,2.04
2023-04-07T17:25:03.802Z,1.71
2023-04-07T17:27:30.328Z,1.68
2023-04-07T17:29:56.921Z,2.50
2023-04-07T17:32:23.367Z,2.65
2023-04-07T17:34:53.839Z,2.46
2023-04-07T17:37:20.606Z,3.30
2023-04-07T17:39:47.086Z,2.37
2023-04-07T17:42:13.503Z,2.55
2023-04-07T17:44:40.173Z,2.42
2023-04-07T17:47:06.721Z,3.37
2023-04-07T17:49:33.147Z,3.42
2023-04-07T17:51:59.529Z,3.86
2023-04-07T17:54:26.100Z,3.99
2023-04-07T17:56:52.676Z,2.75
2023-04-07T17:59:19.100Z,2.65
2023-04-07T18:01:45.599Z,3.56
2023-04-07T18:04:12.288Z,2.53
2023-04-07T18:06:38.872Z,2.29
2023-04-07T18:09:05.349Z,2.48
2023-04-07T18:11:32.822Z,2.74
2023-04-07T18:13:59.479Z,2.57
2023-04-07T18:16:25.982Z,2.77
2023-04-07T18:18:52.490Z,2.60
2023-04-07T18:21:19.061Z,2.25
2023-04-07T18:23:45.514Z,2.17
2023-04-07T18:26:11.893Z,2.31
2023-04-07T18:28:38.565Z,2.39
2023-04-07T18:31:05.059Z,2.67
2023-04-07T18:33:31.549Z,3.49
2023-04-07T18:35:57.999Z,3.78
2023-04-07T18:38:24.514Z,3.36
2023-04-07T18:40:50.882Z,3.44
2023-04-07T18:43:17.542Z,3.18
2023-04-07T18:45:44.029Z,3.13
2023-04-07T18:48:10.399Z,4.66
2023-04-07T18:50:37.554Z,3.78
2023-04-07T18:53:04.263Z,3.10
2023-04-07T18:55:30.727Z,3.31
2023-04-07T18:57:57.179Z,3.75
2023-04-07T19:00:23.643Z,3.76
2023-04-07T19:02:50.343Z,3.57
2023-04-07T19:05:16.844Z,3.73
2023-04-07T19:07:45.645Z,4.28
2023-04-07T19:10:12.027Z,5.32
2023-04-07T19:12:38.932Z,5.13
2023-04-07T19:15:05.387Z,4.86
2023-04-07T19:17:31.841Z,4.68
2023-04-07T19:20:00.220Z,4.58
2023-04-07T19:22:27.006Z,4.69
2023-04-07T19:24:53.382Z,4.03
2023-04-07T19:27:19.862Z,4.67
2023-04-07T19:29:46.250Z,4.82
2023-04-07T19:32:12.745Z,5.24
2023-04-07T19:34:39.303Z,5.33
2023-04-07T19:37:05.966Z,5.13
2023-04-07T19:39:32.614Z,4.93
2023-04-07T19:41:59.208Z,5.35
2023-04-07T19:44:25.600Z,5.31
2023-04-07T19:46:51.988Z,7.13
2023-04-07T19:49:18.637Z,5.28
2023-04-07T19:51:45.170Z,5.55
2023-04-07T19:54:11.561Z,5.30
2023-04-07T19:56:37.916Z,4.57
2023-04-07T19:59:04.300Z,4.60
2023-04-07T20:01:30.751Z,5.21
2023-04-07T20:03:57.669Z,5.23
2023-04-07T20:06:24.239Z,4.75
2023-04-07T20:08:51.048Z,4.78
2023-04-07T20:11:17.714Z,5.70
2023-04-07T20:13:44.203Z,6.66
2023-04-07T20:16:10.959Z,6.34
2023-04-07T20:18:37.407Z,6.61
2023-04-07T20:21:03.831Z,6.27
2023-04-07T20:23:33.034Z,6.56
2023-04-07T20:25:59.599Z,6.69
2023-04-07T20:28:26.483Z,6.43
2023-04-07T20:30:53.005Z,7.03
2023-04-07T20:33:19.674Z,6.46
2023-04-07T20:35:46.132Z,5.91
2023-04-07T20:38:12.534Z,5.81
2023-04-07T20:40:38.980Z,6.21
2023-04-07T20:43:05.451Z,7.49
2023-04-07T20:45:35.040Z,8.16
2023-04-07T20:48:01.509Z,6.52
2023-04-07T20:50:28.118Z,7.14
2023-04-07T20:52:54.721Z,6.83
2023-04-07T20:55:21.247Z,6.78
2023-04-07T20:57:47.673Z,8.07
2023-04-07T21:00:14.206Z,7.78
2023-04-07T21:02:40.953Z,7.43
2023-04-07T21:05:07.628Z,7.50
2023-04-07T21:07:34.198Z,7.56
2023-04-07T21:10:02.524Z,9.55
2023-04-07T21:12:29.176Z,10.12
2023-04-07T21:14:55.647Z,9.62
2023-04-07T21:17:22.135Z,8.80
2023-04-07T21:19:48.842Z,7.77
2023-04-07T21:22:15.729Z,7.81
2023-04-07T21:24:42.185Z,7.13
2023-04-07T21:27:08.691Z,8.04
2023-04-07T21:29:35.433Z,7.60
2023-04-07T21:32:01.857Z,7.90
2023-04-07T21:34:28.436Z,7.86
2023-04-07T21:36:55.105Z,6.73
2023-04-07T21:39:21.615Z,6.83
2023-04-07T21:41:47.986Z,7.57
2023-04-07T21:44:14.581Z,7.81
2023-04-07T21:46:41.260Z,7.47
2023-04-07T21:49:07.921Z,7.12
2023-04-07T21:51:34.394Z,7.43
2023-04-07T21:54:00.986Z,7.39
2023-04-07T21:56:28.875Z,7.40
2023-04-07T21:58:55.765Z,6.83
2023-04-07T22:01:22.199Z,7.94
2023-04-07T22:03:48.770Z,13.58
2023-04-07T22:06:21.524Z,15.85
2023-04-07T22:09:00.474Z,10.90
2023-04-07T22:11:28.057Z,9.29
2023-04-07T22:13:54.492Z,8.41
2023-04-07T22:16:20.986Z,8.27
2023-04-07T22:18:47.756Z,7.30
2023-04-07T22:21:14.374Z,6.41
2023-04-07T22:23:40.828Z,6.78
2023-04-07T22:26:07.654Z,6.45
2023-04-07T22:28:34.263Z,6.38
2023-04-07T22:31:00.744Z,6.07
2023-04-07T22:33:27.905Z,5.74
2023-04-07T22:35:56.815Z,5.24
2023-04-07T22:38:23.399Z,6.01
2023-04-07T22:40:49.821Z,6.34
2023-04-07T22:43:18.299Z,7.34
2023-04-07T22:45:47.023Z,7.06
2023-04-07T22:48:13.508Z,6.81
2023-04-07T22:50:39.897Z,6.36
2023-04-07T22:53:06.672Z,6.90
2023-04-07T22:55:33.136Z,7.20
2023-04-07T22:57:59.552Z,8.29
2023-04-07T23:00:26.471Z,7.92
2023-04-07T23:02:53.139Z,7.60
2023-04-07T23:05:19.970Z,7.48
2023-04-07T23:07:46.372Z,7.41
2023-04-07T23:10:12.807Z,7.17
2023-04-07T23:12:39.189Z,7.31
2023-04-07T23:15:05.573Z,7.10
2023-04-07T23:17:32.342Z,7.03
2023-04-07T23:19:58.812Z,7.17
2023-04-07T23:22:25.223Z,7.36
2023-04-07T23:24:51.655Z,7.24
2023-04-07T23:27:18.105Z,7.51
2023-04-07T23:29:44.528Z,8.02
2023-04-07T23:32:11.131Z,8.17
2023-04-07T23:34:37.690Z,8.61
2023-04-07T23:37:04.190Z,8.57
2023-04-07T23:39:30.548Z,9.18
2023-04-07T23:41:59.224Z,8.94
2023-04-07T23:44:25.634Z,9.47
2023-04-07T23:46:52.022Z,9.83
2023-04-07T23:49:18.402Z,10.04
2023-04-07T23:51:44.768Z,10.07
2023-04-07T23:54:11.184Z,10.41
2023-04-07T23:56:41.209Z,10.60
2023-04-07T23:59:07.587Z,10.39
